Time;durP1;ratioP1;P1;durP2;ratioP2;P2;SDS_P1;SDS_P2;PMS_P1;PMS_P2;Temp;Humidity;BMP_temperature;BMP_pressure;BME280_temperature;BME280_humidity;BME280_pressure;Samples;Min_cycle;Max_cycle;Signal;HPM_P1;HPM_P2
2023/04/12 00:03:49;;;;;;;7.22;1.58;;;;;;;5.52;100.00;100546.31;10338163;28;20040;-76
2023/04/12 00:08:50;;;;;;;8.82;1.38;;;;;;;5.50;100.00;100523.88;10392704;28;20041;-74
2023/04/12 00:13:51;;;;;;;4.90;1.98;;;;;;;5.49;100.00;100503.94;10382115;28;20033;-75
2023/04/12 00:18:51;;;;;;;8.05;1.45;;;;;;;5.60;100.00;100494.13;10412413;28;20511;-75
2023/04/12 00:23:53;;;;;;;15.00;2.85;;;;;;;5.62;100.00;100487.41;10362421;28;20371;-76
2023/04/12 00:28:53;;;;;;;7.55;1.77;;;;;;;5.59;100.00;100454.25;10400541;28;20124;-76
2023/04/12 00:33:54;;;;;;;13.25;4.95;;;;;;;5.71;100.00;100466.03;10377327;28;20441;-76
2023/04/12 00:38:54;;;;;;;4.15;1.63;;;;;;;5.76;100.00;100460.69;10393090;28;20044;-76
2023/04/12 00:43:55;;;;;;;9.88;1.13;;;;;;;5.81;100.00;100441.72;10360532;28;20041;-76
2023/04/12 00:48:56;;;;;;;7.13;1.80;;;;;;;5.77;100.00;100426.88;10408560;28;20438;-76
2023/04/12 00:53:56;;;;;;;12.25;3.40;;;;;;;5.81;100.00;100419.88;10376523;28;20040;-76
2023/04/12 00:58:57;;;;;;;5.47;1.58;;;;;;;5.80;100.00;100411.91;10350833;28;20034;-75
2023/04/12 01:04:00;;;;;;;9.05;1.70;;;;;;;5.84;100.00;100388.53;10353282;28;20041;-75
2023/04/12 01:09:22;;;;;;;10.05;1.83;;;;;;;5.98;100.00;100391.91;10352097;28;20057;-75
2023/04/12 01:14:48;;;;;;;6.30;1.52;;;;;;;5.96;100.00;100369.44;10357879;28;20066;-76
2023/04/12 01:20:18;;;;;;;12.75;2.72;;;;;;;6.08;100.00;100373.03;10376734;28;20045;-76
2023/04/12 01:25:40;;;;;;;8.95;2.95;;;;;;;6.12;100.00;100360.56;10377313;28;20041;-75
2023/04/12 01:30:41;;;;;;;8.13;2.30;;;;;;;6.17;100.00;100360.66;10376824;28;20521;-76
2023/04/12 01:35:42;;;;;;;5.88;1.55;;;;;;;6.15;100.00;100340.94;10376524;28;20118;-75
2023/04/12 01:40:42;;;;;;;7.50;2.17;;;;;;;6.03;100.00;100318.25;10352709;28;20041;-75
2023/04/12 01:45:43;;;;;;;14.52;3.20;;;;;;;6.18;100.00;100315.88;10374824;28;20049;-75
2023/04/12 01:51:15;;;;;;;7.68;3.58;;;;;;;6.18;100.00;100294.00;10377187;28;20130;-69
2023/04/12 01:56:16;;;;;;;10.27;3.53;;;;;;;6.33;100.00;100306.34;10373718;28;20044;-76
2023/04/12 02:01:17;;;;;;;13.48;1.90;;;;;;;6.33;100.00;100284.47;10375059;28;20034;-73
2023/04/12 02:06:19;;;;;;;7.50;3.17;;;;;;;6.41;100.00;100273.16;10359361;28;20050;-76
2023/04/12 02:11:20;;;;;;;10.63;1.80;;;;;;;6.45;100.00;100269.69;10341829;28;20084;-76
2023/04/12 02:16:21;;;;;;;9.63;2.90;;;;;;;6.51;100.00;100262.44;10376266;28;20026;-76
2023/04/12 02:21:22;;;;;;;8.98;3.45;;;;;;;6.51;100.00;100234.25;10371961;28;20061;-76
2023/04/12 02:26:22;;;;;;;6.15;2.30;;;;;;;6.53;100.00;100218.41;10341431;28;20038;-77
2023/04/12 02:31:23;;;;;;;7.10;2.45;;;;;;;6.53;100.00;100207.47;10341656;28;20052;-77
2023/04/12 02:36:23;;;;;;;14.57;3.10;;;;;;;6.53;100.00;100196.53;10372223;28;20072;-76
2023/04/12 02:41:24;;;;;;;12.65;2.58;;;;;;;6.52;100.00;100201.19;10364445;28;20049;-75
2023/04/12 02:46:26;;;;;;;8.20;2.45;;;;;;;6.51;100.00;100198.69;10321923;28;20037;-76
2023/04/12 02:51:27;;;;;;;4.28;1.90;;;;;;;6.53;100.00;100193.81;10367972;28;20041;-76
2023/04/12 02:56:28;;;;;;;8.43;2.72;;;;;;;6.54;100.00;100190.84;10356802;28;20402;-76
2023/04/12 03:01:29;;;;;;;7.85;2.47;;;;;;;6.57;100.00;100168.44;10355071;28;20042;-77
2023/04/12 03:06:30;;;;;;;10.25;2.95;;;;;;;6.61;100.00;100147.75;10340068;28;20034;-76
2023/04/12 03:11:32;;;;;;;11.00;2.67;;;;;;;6.59;100.00;100141.69;10359952;28;20505;-76
2023/04/12 03:16:34;;;;;;;13.75;3.00;;;;;;;6.55;100.00;100137.81;10381234;28;20417;-76
2023/04/12 03:21:35;;;;;;;10.13;3.72;;;;;;;6.46;100.00;100117.41;10396990;28;20041;-76
2023/04/12 03:26:36;;;;;;;7.88;2.95;;;;;;;6.56;100.00;100117.56;10396433;28;20104;-76
2023/04/12 03:31:36;;;;;;;12.25;3.35;;;;;;;6.60;100.00;100110.53;10379876;28;20038;-76
2023/04/12 03:36:38;;;;;;;9.43;2.85;;;;;;;6.64;100.00;100089.81;10354311;28;20061;-76
2023/04/12 03:41:38;;;;;;;8.98;2.95;;;;;;;6.69;100.00;100069.09;10338307;28;20053;-69
2023/04/12 03:46:38;;;;;;;9.98;2.78;;;;;;;6.78;100.00;100062.13;10372942;28;20050;-76
2023/04/12 03:51:42;;;;;;;12.38;2.80;;;;;;;6.83;100.00;100052.09;10354661;28;20042;-76
2023/04/12 03:56:42;;;;;;;9.15;2.60;;;;;;;6.97;100.00;100036.19;10354726;28;20045;-75
2023/04/12 04:01:43;;;;;;;7.85;3.53;;;;;;;6.98;100.00;100028.78;10353842;28;20501;-75
2023/04/12 04:06:43;;;;;;;11.50;3.30;;;;;;;6.95;100.00;100008.22;10342546;28;20027;-76
2023/04/12 04:11:45;;;;;;;10.80;3.00;;;;;;;6.94;100.00;99994.78;10338474;28;20057;-75
2023/04/12 04:16:46;;;;;;;13.85;3.72;;;;;;;6.90;100.00;99985.44;10352969;28;20046;-76
2023/04/12 04:21:48;;;;;;;8.93;3.38;;;;;;;6.89;100.00;99970.94;10337539;28;20064;-75
2023/04/12 04:26:53;;;;;;;9.77;3.10;;;;;;;6.86;100.00;99944.06;10367513;28;20406;-76
2023/04/12 04:31:53;;;;;;;10.90;3.08;;;;;;;6.98;100.00;99963.94;10353038;28;20125;-76
2023/04/12 04:36:54;;;;;;;7.40;3.40;;;;;;;6.95;100.00;99964.44;10353373;28;20034;-77
2023/04/12 04:41:54;;;;;;;11.95;3.40;;;;;;;6.88;100.00;99961.06;10394984;28;20041;-76
2023/04/12 04:46:57;;;;;;;10.23;3.25;;;;;;;6.85;100.00;99956.09;10398910;28;20058;-77
2023/04/12 04:51:58;;;;;;;10.77;3.00;;;;;;;6.77;100.00;99945.59;10400846;28;20045;-80
2023/04/12 04:57:00;;;;;;;9.68;4.20;;;;;;;6.64;100.00;99949.50;10373012;28;20037;-79
2023/04/12 05:02:00;;;;;;;7.55;3.63;;;;;;;6.64;100.00;99942.13;10343532;28;20041;-83
2023/04/12 05:07:01;;;;;;;7.18;3.00;;;;;;;6.57;100.00;99935.16;10360654;28;20068;-81
2023/04/12 05:12:02;;;;;;;13.88;4.95;;;;;;;6.56;100.00;99936.25;10327290;28;20034;-80
2023/04/12 05:17:02;;;;;;;6.38;2.83;;;;;;;6.54;100.00;99931.03;10376073;28;20034;-80
2023/04/12 05:22:03;;;;;;;8.23;2.90;;;;;;;6.58;100.00;99920.44;10342515;28;20061;-81
2023/04/12 05:27:03;;;;;;;7.60;2.83;;;;;;;6.54;100.00;99914.63;10341352;28;20072;-80
2023/04/12 05:32:04;;;;;;;7.82;2.53;;;;;;;6.54;100.00;99886.47;10358042;28;20117;-79
2023/04/12 05:37:05;;;;;;;7.78;2.80;;;;;;;6.57;100.00;99894.97;10357443;28;20033;-79
2023/04/12 05:42:06;;;;;;;8.05;2.55;;;;;;;6.59;100.00;99890.06;10376439;28;20034;-77
2023/04/12 05:47:06;;;;;;;4.30;2.35;;;;;;;6.64;100.00;99887.44;10358684;28;20490;-77
2023/04/12 05:52:07;;;;;;;7.90;2.70;;;;;;;6.67;100.00;99875.16;10358530;28;20081;-75
2023/04/12 05:57:07;;;;;;;6.55;2.55;;;;;;;6.72;100.00;99883.44;10355837;28;20120;-69
2023/04/12 06:02:09;;;;;;;10.52;2.80;;;;;;;6.64;100.00;99867.47;10358536;28;20037;-76
2023/04/12 06:07:09;;;;;;;8.80;3.38;;;;;;;6.65;100.00;99850.78;10326228;28;20061;-76
2023/04/12 06:12:10;;;;;;;11.07;3.15;;;;;;;6.70;100.00;99857.41;10359057;28;20042;-75
2023/04/12 06:17:10;;;;;;;6.95;2.90;;;;;;;6.70;100.00;99863.72;10357029;28;20065;-76
2023/04/12 06:22:11;;;;;;;6.38;2.47;;;;;;;6.72;100.00;99845.13;10340533;28;20054;-76
2023/04/12 06:27:11;;;;;;;11.70;3.22;;;;;;;6.80;100.00;99839.22;10340429;28;20047;-75
2023/04/12 06:32:12;;;;;;;8.45;3.47;;;;;;;6.83;100.00;99824.19;10323944;28;20038;-75
2023/04/12 06:37:12;;;;;;;4.43;2.58;;;;;;;6.74;100.00;99807.41;10341102;28;20045;-73
2023/04/12 06:42:13;;;;;;;6.50;2.20;;;;;;;6.85;100.00;99808.34;10342040;28;20033;-75
2023/04/12 06:47:14;;;;;;;9.82;2.78;;;;;;;6.83;100.00;99808.59;10351359;28;20060;-75
2023/04/12 06:52:15;;;;;;;7.63;2.92;;;;;;;6.85;100.00;99811.91;10343700;28;20068;-76
2023/04/12 06:57:15;;;;;;;12.00;2.95;;;;;;;6.74;100.00;99804.69;10370559;28;20416;-78
2023/04/12 07:02:16;;;;;;;7.18;2.45;;;;;;;6.64;100.00;99785.41;10359933;28;20034;-77
2023/04/12 07:07:16;;;;;;;8.75;3.33;;;;;;;6.76;100.00;99790.72;10380114;28;20041;-76
2023/04/12 07:12:17;;;;;;;8.65;2.92;;;;;;;6.64;100.00;99769.81;10395262;28;20159;-77
2023/04/12 07:17:17;;;;;;;8.13;3.08;;;;;;;6.77;100.00;99795.13;10408328;28;20034;-77
2023/04/12 07:22:18;;;;;;;9.73;3.60;;;;;;;6.86;100.00;99794.44;10402531;28;20065;-79
2023/04/12 07:27:18;;;;;;;11.27;3.20;;;;;;;6.87;100.00;99787.03;10379389;28;20057;-78
2023/04/12 07:32:19;;;;;;;11.65;2.80;;;;;;;6.80;100.00;99769.97;10393623;28;20061;-78
2023/04/12 07:37:20;;;;;;;10.25;3.72;;;;;;;6.92;100.00;99767.94;10377082;28;20064;-77
2023/04/12 07:42:20;;;;;;;7.78;3.63;;;;;;;7.03;100.00;99774.38;10381358;28;20049;-78
2023/04/12 07:47:20;;;;;;;8.77;3.50;;;;;;;7.07;100.00;99765.38;10371731;28;20041;-78
2023/04/12 07:52:21;;;;;;;7.45;3.03;;;;;;;7.10;100.00;99755.81;10354528;28;20046;-77
2023/04/12 07:57:22;;;;;;;9.25;3.83;;;;;;;7.07;100.00;99753.59;10354914;28;20079;-76
2023/04/12 08:02:25;;;;;;;7.25;3.92;;;;;;;7.05;100.00;99756.59;10353826;28;20042;-79
2023/04/12 08:07:26;;;;;;;9.70;4.13;;;;;;;7.03;100.00;99738.78;10371687;28;20589;-77
2023/04/12 08:12:26;;;;;;;12.27;5.10;;;;;;;7.11;100.00;99745.69;10371431;28;20042;-78
2023/04/12 08:17:27;;;;;;;7.10;3.53;;;;;;;7.17;100.00;99742.75;10372048;28;20038;-77
2023/04/12 08:22:27;;;;;;;12.85;4.45;;;;;;;7.07;100.00;99726.25;10353808;28;20104;-79
2023/04/12 08:27:28;;;;;;;9.68;5.03;;;;;;;7.13;100.00;99735.31;10354068;28;20041;-78
2023/04/12 08:32:29;;;;;;;7.35;4.95;;;;;;;7.07;100.00;99712.56;10380248;28;20065;-77
2023/04/12 08:37:29;;;;;;;13.90;6.18;;;;;;;7.23;100.00;99729.91;10390196;28;20041;-76
2023/04/12 08:42:30;;;;;;;8.07;5.97;;;;;;;7.35;100.00;99730.56;10399647;28;20037;-78
2023/04/12 08:47:32;;;;;;;12.48;5.80;;;;;;;7.44;100.00;99730.91;10396075;28;20034;-77
2023/04/12 08:52:33;;;;;;;8.73;4.97;;;;;;;7.46;100.00;99707.69;10350304;28;20060;-77
2023/04/12 08:57:35;;;;;;;9.77;6.20;;;;;;;7.57;100.00;99702.28;10380606;28;20052;-77
2023/04/12 09:02:37;;;;;;;8.60;5.38;;;;;;;7.68;100.00;99699.31;10381905;28;20069;-77
2023/04/12 09:07:37;;;;;;;7.30;5.05;;;;;;;7.89;100.00;99699.44;10371100;28;20037;-78
2023/04/12 09:12:46;;;;;;;8.07;5.22;;;;;;;8.12;100.00;99686.41;10333976;28;20053;-78
2023/04/12 09:17:48;;;;;;;4.75;4.03;;;;;;;8.22;100.00;99670.81;10350660;28;20130;-78
2023/04/12 09:22:48;;;;;;;7.05;4.20;;;;;;;8.55;100.00;99692.63;10367835;28;20064;-78
2023/04/12 09:27:57;;;;;;;6.55;3.63;;;;;;;8.41;100.00;99684.94;10410454;28;20033;-77
2023/04/12 09:33:10;;;;;;;6.28;2.72;;;;;;;8.14;100.00;99678.75;10396272;28;20045;-77
2023/04/12 09:38:10;;;;;;;4.60;3.30;;;;;;;8.13;100.00;99675.19;10383288;28;20396;-85
2023/04/12 09:43:11;;;;;;;6.63;4.40;;;;;;;8.11;100.00;99673.81;10382470;28;20033;-78
2023/04/12 09:48:19;;;;;;;4.90;3.15;;;;;;;8.13;100.00;99693.56;10406926;28;20052;-77
2023/04/12 09:53:20;;;;;;;4.88;3.53;;;;;;;7.93;100.00;99661.38;10383690;28;20034;-76
2023/04/12 09:58:20;;;;;;;6.93;3.65;;;;;;;8.13;100.00;99694.38;10367354;28;20440;-78
2023/04/12 10:03:21;;;;;;;4.82;3.50;;;;;;;8.15;100.00;99683.97;10401319;28;20083;-76
2023/04/12 10:08:21;;;;;;;7.55;4.07;;;;;;;8.37;100.00;99691.16;10399498;28;20025;-77
2023/04/12 10:13:22;;;;;;;5.85;3.83;;;;;;;8.31;100.00;99651.97;10417493;28;20122;-76
2023/04/12 10:18:22;;;;;;;5.25;3.30;;;;;;;8.76;100.00;99683.34;10399593;28;20038;-76
2023/04/12 10:23:23;;;;;;;5.45;3.75;;;;;;;9.17;100.00;99677.91;10364177;28;20045;-77
2023/04/12 10:28:23;;;;;;;4.82;4.07;;;;;;;9.48;100.00;99659.47;10339169;28;20488;-78
2023/04/12 10:33:29;;;;;;;5.97;4.50;;;;;;;9.82;100.00;99660.81;10350056;28;20066;-77
2023/04/12 10:38:36;;;;;;;4.50;4.10;;;;;;;10.13;100.00;99653.28;10372938;28;20560;-77
2023/04/12 10:43:36;;;;;;;;;;;;;;;10.48;100.00;99641.31;10356819;28;20055;-78
2023/04/12 10:48:55;;;;;;;5.28;4.43;;;;;;;10.47;100.00;99614.88;10386427;28;20415;-77
2023/04/12 10:54:07;;;;;;;5.03;3.97;;;;;;;11.11;100.00;99629.56;10390398;28;20044;-77
2023/04/12 10:59:08;;;;;;;3.75;3.42;;;;;;;11.56;100.00;99606.56;10391653;28;20049;-77
2023/04/12 11:04:23;;;;;;;4.10;3.70;;;;;;;11.79;100.00;99625.06;10339420;28;20072;-77
2023/04/12 11:09:33;;;;;;;3.80;3.22;;;;;;;12.05;100.00;99619.25;10370794;28;20042;-77
2023/04/12 11:14:50;;;;;;;5.50;3.05;;;;;;;12.27;100.00;99602.16;10390742;28;20053;-76
2023/04/12 11:19:51;;;;;;;5.50;2.75;;;;;;;12.32;100.00;99619.47;10357289;28;20037;-76
2023/04/12 11:24:56;;;;;;;5.20;2.95;;;;;;;12.13;100.00;99610.31;10374372;28;20092;-76
2023/04/12 11:29:58;;;;;;;5.47;2.90;;;;;;;12.06;100.00;99618.16;10372089;28;20456;-76
2023/04/12 11:34:58;;;;;;;5.07;3.88;;;;;;;12.41;100.00;99610.53;10354801;28;20112;-76
2023/04/12 11:39:59;;;;;;;6.20;3.30;;;;;;;12.46;100.00;99596.63;10352593;28;20120;-76
2023/04/12 11:44:59;;;;;;;3.58;2.33;;;;;;;13.09;100.00;99614.72;10355740;28;20060;-76
2023/04/12 11:50:00;;;;;;;5.60;2.92;;;;;;;12.87;100.00;99605.13;10371786;28;20029;-76
2023/04/12 11:55:03;;;;;;;6.38;2.30;;;;;;;13.31;100.00;99589.22;10371918;28;20533;-75
2023/04/12 12:00:05;;;;;;;8.10;2.40;;;;;;;13.90;100.00;99590.28;10372416;28;20096;-76
2023/04/12 12:05:06;;;;;;;6.30;2.97;;;;;;;13.15;100.00;99524.25;10352940;28;20064;-77
2023/04/12 12:10:07;;;;;;;6.22;2.75;;;;;;;13.38;100.00;99584.13;10368835;28;20072;-77
2023/04/12 12:15:08;;;;;;;8.88;3.20;;;;;;;13.42;100.00;99578.81;10353251;28;20048;-77
2023/04/12 12:20:18;;;;;;;5.90;2.63;;;;;;;14.51;100.00;99570.72;10354547;28;20074;-77
2023/04/12 12:25:18;;;;;;;8.63;2.00;;;;;;;15.23;100.00;99544.03;10388765;28;20041;-79
2023/04/12 12:30:19;;;;;;;9.02;1.95;;;;;;;16.19;100.00;99545.22;10386788;28;20049;-79
2023/04/12 12:35:19;;;;;;;5.30;1.80;;;;;;;16.55;100.00;99519.09;10369869;28;20510;-79
2023/04/12 12:40:32;;;;;;;6.90;2.15;;;;;;;16.32;100.00;99526.75;10366132;28;20083;-80
2023/04/12 12:45:33;;;;;;;10.20;2.33;;;;;;;15.71;100.00;99524.66;10386316;28;20429;-80
2023/04/12 12:50:35;;;;;;;9.10;2.53;;;;;;;14.67;100.00;99541.53;10375046;28;20042;-80
2023/04/12 12:55:36;;;;;;;8.35;2.40;;;;;;;13.91;100.00;99539.38;10347794;28;20029;-81
2023/04/12 13:00:36;;;;;;;7.53;2.13;;;;;;;13.03;100.00;99544.91;10362859;28;20129;-78
2023/04/12 13:05:37;;;;;;;10.30;2.60;;;;;;;12.82;100.00;99566.53;10373235;28;20509;-80
2023/04/12 13:10:37;;;;;;;7.72;2.45;;;;;;;12.17;100.00;99580.22;10410261;28;20045;-86
2023/04/12 13:15:38;;;;;;;11.07;2.72;;;;;;;11.73;100.00;99595.91;10369466;28;20044;-76
2023/04/12 13:20:38;;;;;;;9.02;3.38;;;;;;;10.87;100.00;99529.53;10395796;28;20037;-77
2023/04/12 13:25:39;;;;;;;13.65;3.83;;;;;;;11.29;100.00;99585.91;10376461;28;20033;-75
2023/04/12 13:30:41;;;;;;;12.27;3.33;;;;;;;11.82;100.00;99583.09;10374501;28;20053;-78
2023/04/12 13:35:41;;;;;;;11.25;2.88;;;;;;;12.34;100.00;99543.81;10373614;28;20105;-81
2023/04/12 13:40:42;;;;;;;13.65;3.28;;;;;;;14.01;100.00;99563.22;10360436;28;20037;-81
2023/04/12 13:45:43;;;;;;;12.80;2.05;;;;;;;14.40;100.00;99530.56;10361423;28;20088;-81
2023/04/12 13:50:44;;;;;;;11.93;1.92;;;;;;;13.84;100.00;99482.81;10377463;28;20168;-80
2023/04/12 13:55:45;;;;;;;13.60;2.35;;;;;;;14.14;100.00;99509.00;10374849;28;20091;-80
2023/04/12 14:00:45;;;;;;;17.45;3.30;;;;;;;14.97;100.00;99494.81;10371813;28;20605;-81
2023/04/12 14:05:46;;;;;;;12.55;2.80;;;;;;;15.10;100.00;99482.81;10372890;28;20033;-80
2023/04/12 14:10:46;;;;;;;12.32;2.03;;;;;;;15.69;100.00;99487.28;10373410;28;20059;-81
2023/04/12 14:15:47;;;;;;;11.05;2.08;;;;;;;15.28;97.91;99480.94;10397785;28;20030;-79
2023/04/12 14:20:54;;;;;;;9.95;1.65;;;;;;;13.83;95.84;99489.47;10382686;28;20045;-81
2023/04/12 14:25:55;;;;;;;7.43;1.25;;;;;;;13.19;94.82;99503.19;10400151;28;20101;-79
2023/04/12 14:30:56;;;;;;;7.45;1.30;;;;;;;12.72;96.89;99500.44;10415687;28;20050;-80
2023/04/12 14:35:56;;;;;;;8.20;1.33;;;;;;;12.41;94.88;99491.84;10394635;28;20394;-79
2023/04/12 14:40:57;;;;;;;8.57;1.17;;;;;;;12.07;97.52;99524.06;10375024;28;20054;-79
2023/04/12 14:45:57;;;;;;;4.30;1.40;;;;;;;11.83;100.00;99540.63;10376333;28;20034;-79
2023/04/12 14:50:58;;;;;;;14.02;1.73;;;;;;;11.43;100.00;99548.28;10374071;28;20065;-80
2023/04/12 14:56:01;;;;;;;13.55;2.42;;;;;;;11.48;100.00;99550.97;10374764;28;20045;-80
2023/04/12 15:01:01;;;;;;;5.85;1.70;;;;;;;12.12;100.00;99548.00;10357723;28;20046;-79
2023/04/12 15:06:02;;;;;;;8.50;2.00;;;;;;;13.37;100.00;99465.56;10372484;28;20030;-78
2023/04/12 15:11:03;;;;;;;9.63;2.00;;;;;;;13.75;96.96;99491.03;10392318;28;20033;-79
2023/04/12 15:16:03;;;;;;;9.48;1.50;;;;;;;13.13;93.97;99500.53;10396968;28;20037;-79
2023/04/12 15:21:08;;;;;;;7.63;1.63;;;;;;;12.65;96.72;99498.06;10372809;28;20057;-80
2023/04/12 15:26:09;;;;;;;7.10;1.30;;;;;;;12.86;96.53;99501.28;10372491;28;20052;-80
2023/04/12 15:31:10;;;;;;;7.45;1.42;;;;;;;12.91;87.76;99500.38;10371037;28;20057;-80
2023/04/12 15:36:11;;;;;;;4.60;1.30;;;;;;;12.85;86.11;99474.78;10342118;28;20456;-81
2023/04/12 15:41:12;;;;;;;6.72;1.13;;;;;;;12.85;84.18;99494.13;10355122;28;20030;-79
2023/04/12 15:46:12;;;;;;;5.57;0.90;;;;;;;12.35;82.53;99484.75;10376634;28;20571;-77
2023/04/12 15:51:13;;;;;;;6.13;0.70;;;;;;;12.11;81.09;99485.66;10355359;28;20383;-80
2023/04/12 15:56:15;;;;;;;6.55;1.42;;;;;;;11.71;79.89;99490.59;10373268;28;20496;-71
2023/04/12 16:01:17;;;;;;;4.93;1.40;;;;;;;11.57;83.89;99503.47;10355525;28;20060;-79
2023/04/12 16:06:19;;;;;;;5.45;1.30;;;;;;;11.44;86.00;99522.34;10373346;28;20038;-79
2023/04/12 16:11:22;;;;;;;7.20;1.30;;;;;;;11.13;88.45;99523.81;10338111;28;20038;-79
2023/04/12 16:16:23;;;;;;;7.07;1.27;;;;;;;11.10;92.28;99550.81;10372453;28;20052;-79
2023/04/12 16:21:25;;;;;;;7.55;1.33;;;;;;;10.92;94.73;99548.78;10370338;28;20049;-78
2023/04/12 16:26:26;;;;;;;3.17;1.23;;;;;;;10.74;95.74;99557.75;10383631;28;20072;-78
2023/04/12 16:31:26;;;;;;;8.45;1.20;;;;;;;10.73;99.58;99586.38;10409918;28;20041;-79
2023/04/12 16:36:30;;;;;;;3.92;1.23;;;;;;;10.49;100.00;99581.59;10410366;28;20057;-78
2023/04/12 16:41:30;;;;;;;8.13;1.75;;;;;;;10.19;100.00;99608.16;10408027;28;20041;-78
2023/04/12 16:46:31;;;;;;;4.32;1.02;;;;;;;10.27;100.00;99643.31;10411617;28;20180;-79
2023/04/12 16:51:32;;;;;;;8.48;1.45;;;;;;;10.11;100.00;99650.00;10393290;28;20053;-79
2023/04/12 16:56:32;;;;;;;9.48;1.55;;;;;;;9.89;100.00;99637.41;10393244;28;20029;-79
2023/04/12 17:01:33;;;;;;;11.00;1.92;;;;;;;9.81;100.00;99646.22;10410272;28;20054;-69
2023/04/12 17:06:33;;;;;;;8.07;1.88;;;;;;;9.66;100.00;99649.03;10393674;28;20036;-77
2023/04/12 17:11:35;;;;;;;7.22;1.67;;;;;;;9.53;100.00;99624.84;10411956;28;20515;-79
2023/04/12 17:16:35;;;;;;;9.98;1.77;;;;;;;9.64;100.00;99646.56;10399555;28;20037;-80
2023/04/12 17:21:40;;;;;;;13.10;2.08;;;;;;;9.45;100.00;99632.59;10410620;28;20054;-80
2023/04/12 17:26:40;;;;;;;8.07;1.40;;;;;;;9.41;100.00;99636.97;10392826;28;20087;-79
2023/04/12 17:31:41;;;;;;;7.70;2.05;;;;;;;9.39;100.00;99652.09;10392537;28;20139;-79
2023/04/12 17:36:42;;;;;;;12.40;3.42;;;;;;;9.24;100.00;99637.28;10394896;28;20044;-80
2023/04/12 17:41:42;;;;;;;13.15;2.45;;;;;;;9.23;100.00;99646.59;10411673;28;20037;-78
2023/04/12 17:46:43;;;;;;;10.38;2.30;;;;;;;9.24;100.00;99658.41;10413026;28;20056;-79
2023/04/12 17:51:43;;;;;;;7.35;1.60;;;;;;;9.13;100.00;99651.28;10411808;28;20033;-79
2023/04/12 17:56:44;;;;;;;12.27;2.67;;;;;;;9.12;100.00;99661.44;10384123;28;20045;-78
2023/04/12 18:01:44;;;;;;;12.48;2.30;;;;;;;9.05;100.00;99663.63;10417911;28;20112;-79
2023/04/12 18:06:45;;;;;;;12.88;2.88;;;;;;;8.81;100.00;99638.66;10418017;28;20046;-79
2023/04/12 18:11:46;;;;;;;8.05;1.70;;;;;;;8.73;100.00;99639.19;10418699;28;20042;-78
2023/04/12 18:16:47;;;;;;;15.52;3.05;;;;;;;8.81;100.00;99666.09;10417390;28;20034;-79
2023/04/12 18:21:47;;;;;;;10.48;1.83;;;;;;;8.71;100.00;99660.59;10401012;28;20052;-79
2023/04/12 18:26:48;;;;;;;10.68;2.90;;;;;;;8.53;100.00;99645.44;10400737;28;20044;-80
2023/04/12 18:31:50;;;;;;;6.05;1.60;;;;;;;8.48;100.00;99662.72;10373482;28;20057;-78
2023/04/12 18:36:50;;;;;;;11.00;2.05;;;;;;;8.34;100.00;99675.25;10401027;28;20096;-77
2023/04/12 18:41:51;;;;;;;7.60;2.20;;;;;;;8.17;100.00;99672.75;10403332;28;20040;-76
2023/04/12 18:46:52;;;;;;;8.98;2.05;;;;;;;8.01;100.00;99674.59;10399354;28;20030;-79
2023/04/12 18:51:52;;;;;;;8.02;2.53;;;;;;;7.99;100.00;99693.22;10399874;28;20037;-78
2023/04/12 18:56:53;;;;;;;10.75;2.63;;;;;;;7.85;100.00;99692.84;10399083;28;20044;-78
2023/04/12 19:01:53;;;;;;;7.45;2.20;;;;;;;7.80;100.00;99701.88;10415029;28;20105;-79
2023/04/12 19:06:54;;;;;;;7.85;2.42;;;;;;;7.74;100.00;99713.88;10412926;28;20108;-79
2023/04/12 19:11:55;;;;;;;11.35;2.33;;;;;;;7.68;100.00;99706.72;10399199;28;20041;-77
2023/04/12 19:16:56;;;;;;;11.40;2.70;;;;;;;7.40;100.00;99685.97;10380576;28;20037;-79
2023/04/12 19:21:56;;;;;;;8.52;2.88;;;;;;;7.40;100.00;99703.25;10411712;28;20041;-79
2023/04/12 19:26:57;;;;;;;7.88;2.47;;;;;;;7.34;100.00;99709.78;10412590;28;20033;-77
2023/04/12 19:31:59;;;;;;;10.82;2.53;;;;;;;7.17;100.00;99709.06;10400721;28;20538;-78
2023/04/12 19:37:01;;;;;;;9.52;3.20;;;;;;;6.93;100.00;99706.66;10385346;28;20041;-78
2023/04/12 19:42:02;;;;;;;13.05;3.53;;;;;;;6.76;100.00;99720.47;10397653;28;20045;-79
2023/04/12 19:47:03;;;;;;;11.77;4.68;;;;;;;6.38;100.00;99683.09;10413319;28;20112;-77
2023/04/12 19:52:04;;;;;;;9.13;3.42;;;;;;;6.41;100.00;99718.16;10394214;28;20041;-78
2023/04/12 19:57:05;;;;;;;7.95;3.97;;;;;;;6.12;100.00;99704.66;10413385;28;20420;-78
2023/04/12 20:02:06;;;;;;;9.52;4.30;;;;;;;5.97;100.00;99708.00;10395365;28;20037;-78
2023/04/12 20:07:06;;;;;;;10.93;4.93;;;;;;;5.73;100.00;99685.53;10396696;28;20079;-78
2023/04/12 20:12:07;;;;;;;10.07;4.35;;;;;;;5.81;100.00;99717.88;10395383;28;20037;-78
2023/04/12 20:17:09;;;;;;;22.02;6.05;;;;;;;5.59;100.00;99706.06;10394384;28;20119;-78
2023/04/12 20:22:09;;;;;;;9.95;4.20;;;;;;;5.44;100.00;99710.22;10395088;28;20077;-78
2023/04/12 20:27:11;;;;;;;13.52;4.70;;;;;;;5.33;100.00;99702.94;10393312;28;20034;-77
2023/04/12 20:32:13;;;;;;;10.48;4.18;;;;;;;5.25;100.00;99712.38;10407605;28;20461;-77
2023/04/12 20:37:14;;;;;;;13.90;4.65;;;;;;;5.12;100.00;99707.22;10376152;28;20061;-77
2023/04/12 20:42:19;;;;;;;10.32;4.45;;;;;;;5.04;100.00;99719.41;10351889;28;20040;-77
2023/04/12 20:47:19;;;;;;;12.88;4.20;;;;;;;4.94;100.00;99705.59;10345526;28;20038;-77
2023/04/12 20:52:21;;;;;;;13.15;2.50;;;;;;;4.83;100.00;99709.19;10384456;28;20049;-77
2023/04/12 20:57:22;;;;;;;11.20;2.80;;;;;;;4.65;100.00;99702.88;10352602;28;20038;-77
2023/04/12 21:02:23;;;;;;;3.92;2.00;;;;;;;4.69;100.00;99697.75;10369479;28;20038;-77
2023/04/12 21:07:24;;;;;;;6.07;2.00;;;;;;;4.61;100.00;99690.81;10354424;28;20091;-76
2023/04/12 21:12:25;;;;;;;4.50;1.60;;;;;;;4.53;100.00;99684.94;10368684;28;20064;-77
2023/04/12 21:17:26;;;;;;;5.18;2.17;;;;;;;4.45;100.00;99675.25;10369549;28;20042;-78
2023/04/12 21:22:27;;;;;;;5.93;2.05;;;;;;;4.39;100.00;99668.03;10378489;28;20108;-77
2023/04/12 21:27:27;;;;;;;4.50;1.52;;;;;;;4.38;100.00;99686.28;10394342;28;20100;-76
2023/04/12 21:32:28;;;;;;;3.42;1.67;;;;;;;4.36;100.00;99672.09;10417727;28;20037;-77
2023/04/12 21:37:30;;;;;;;2.92;1.70;;;;;;;4.18;100.00;99654.00;10420422;28;20117;-77
2023/04/12 21:42:31;;;;;;;4.95;1.70;;;;;;;4.19;100.00;99665.72;10375525;28;20417;-77
2023/04/12 21:47:31;;;;;;;3.40;1.83;;;;;;;4.11;100.00;99650.59;10425337;28;20090;-78
2023/04/12 21:52:32;;;;;;;2.67;1.63;;;;;;;3.98;100.00;99646.25;10384101;28;20103;-79
2023/04/12 21:57:35;;;;;;;4.45;1.83;;;;;;;3.98;100.00;99661.78;10416408;28;20037;-78
2023/04/12 22:02:35;;;;;;;3.92;2.00;;;;;;;3.82;100.00;99639.69;10417353;28;20097;-76
2023/04/12 22:07:39;;;;;;;4.70;2.30;;;;;;;3.93;100.00;99653.50;10384481;28;20049;-76
2023/04/12 22:12:41;;;;;;;3.30;1.40;;;;;;;3.93;100.00;99653.50;10415867;28;20069;-77
2023/04/12 22:17:42;;;;;;;4.57;1.70;;;;;;;3.88;100.00;99632.41;10399356;28;20045;-77
2023/04/12 22:22:43;;;;;;;3.50;1.38;;;;;;;3.96;100.00;99644.84;10416825;28;20065;-77
2023/04/12 22:27:46;;;;;;;1.33;1.20;;;;;;;3.84;100.00;99620.34;10415113;28;20045;-76
2023/04/12 22:32:47;;;;;;;6.68;2.47;;;;;;;3.91;100.00;99625.69;10400721;28;20037;-76
2023/04/12 22:37:48;;;;;;;7.30;2.28;;;;;;;3.79;100.00;99615.66;10416425;28;20076;-77
2023/04/12 22:42:49;;;;;;;4.30;1.92;;;;;;;3.88;100.00;99613.38;10359945;28;20034;-77
2023/04/12 22:47:49;;;;;;;7.63;2.22;;;;;;;3.70;100.00;99589.03;10375231;28;20414;-78
2023/04/12 22:52:50;;;;;;;5.75;2.78;;;;;;;3.78;100.00;99605.84;10360051;28;20037;-77
2023/04/12 22:57:51;;;;;;;4.15;2.35;;;;;;;3.75;100.00;99611.75;10390251;28;20038;-77
2023/04/12 23:02:52;;;;;;;5.65;2.83;;;;;;;3.71;100.00;99599.69;10359335;28;20038;-76
2023/04/12 23:07:53;;;;;;;5.72;2.28;;;;;;;3.21;100.00;99519.47;10357816;28;20049;-71
2023/04/12 23:12:54;;;;;;;3.42;2.50;;;;;;;3.60;100.00;99576.06;10357568;28;25280;-77